Crypto Currency 2018-01-08T03:29:42+00:00

Leading the Flight Training Industry

Axiom Aviation has become the first flight school in Utah to accept CryptoCurrency flight school payments!  CryptoCurrency has taken the world by storm and we are happy to announce that we now accept flight training payments via Bitcoin and Ethereum.

For more information, inquire below.

Your Name (required)

Your Email (required)

Your Message

Current METAR

KOGD 191753Z 26005KT 10SM CLR 23/01 A2988 RMK AO2 SLP067 T02280011 10228 20111 58004